sensor_id;sensor_type;location;lat;lon;timestamp;temperature;humidity
4354;DHT22;11018;51.258;6.806;2023-08-12T00:01:09;20.80;99.90
4354;DHT22;11018;51.258;6.806;2023-08-12T00:03:35;20.90;99.90
4354;DHT22;11018;51.258;6.806;2023-08-12T00:06:00;20.90;99.90
4354;DHT22;11018;51.258;6.806;2023-08-12T00:08:27;20.80;99.90
4354;DHT22;11018;51.258;6.806;2023-08-12T00:10:52;20.70;99.90
4354;DHT22;11018;51.258;6.806;2023-08-12T00:13:18;20.70;99.90
4354;DHT22;11018;51.258;6.806;2023-08-12T00:15:44;20.60;99.90
4354;DHT22;11018;51.258;6.806;2023-08-12T00:18:10;20.60;99.90
4354;DHT22;11018;51.258;6.806;2023-08-12T00:20:35;20.60;99.90
4354;DHT22;11018;51.258;6.806;2023-08-12T00:23:03;20.60;99.90
4354;DHT22;11018;51.258;6.806;2023-08-12T00:25:29;20.60;99.90
4354;DHT22;11018;51.258;6.806;2023-08-12T00:27:54;20.60;99.90
4354;DHT22;11018;51.258;6.806;2023-08-12T00:30:20;20.60;99.90
4354;DHT22;11018;51.258;6.806;2023-08-12T00:32:46;20.60;99.90
4354;DHT22;11018;51.258;6.806;2023-08-12T00:35:11;20.80;99.90
4354;DHT22;11018;51.258;6.806;2023-08-12T00:37:37;20.80;99.90
4354;DHT22;11018;51.258;6.806;2023-08-12T00:40:03;20.70;99.90
4354;DHT22;11018;51.258;6.806;2023-08-12T00:42:28;20.70;99.90
4354;DHT22;11018;51.258;6.806;2023-08-12T00:44:54;20.60;99.90
4354;DHT22;11018;51.258;6.806;2023-08-12T00:47:21;20.60;99.90
4354;DHT22;11018;51.258;6.806;2023-08-12T00:49:47;20.60;99.90
4354;DHT22;11018;51.258;6.806;2023-08-12T00:52:13;20.50;99.90
4354;DHT22;11018;51.258;6.806;2023-08-12T00:54:40;20.50;99.90
4354;DHT22;11018;51.258;6.806;2023-08-12T00:57:06;20.50;99.90
4354;DHT22;11018;51.258;6.806;2023-08-12T00:59:32;20.50;99.90
4354;DHT22;11018;51.258;6.806;2023-08-12T01:02:00;20.50;99.90
4354;DHT22;11018;51.258;6.806;2023-08-12T01:04:26;20.50;99.90
4354;DHT22;11018;51.258;6.806;2023-08-12T01:06:52;20.50;99.90
4354;DHT22;11018;51.258;6.806;2023-08-12T01:09:18;20.40;99.90
4354;DHT22;11018;51.258;6.806;2023-08-12T01:11:57;20.50;99.90
4354;DHT22;11018;51.258;6.806;2023-08-12T01:14:35;20.50;99.90
4354;DHT22;11018;51.258;6.806;2023-08-12T01:17:06;20.60;99.90
4354;DHT22;11018;51.258;6.806;2023-08-12T01:19:38;20.50;99.90
4354;DHT22;11018;51.258;6.806;2023-08-12T01:22:07;20.50;99.90
4354;DHT22;11018;51.258;6.806;2023-08-12T01:24:38;20.50;99.90
4354;DHT22;11018;51.258;6.806;2023-08-12T01:27:05;20.50;99.90
4354;DHT22;11018;51.258;6.806;2023-08-12T01:29:32;20.50;99.90
4354;DHT22;11018;51.258;6.806;2023-08-12T01:32:36;20.50;99.90
4354;DHT22;11018;51.258;6.806;2023-08-12T01:37:39;20.50;99.90
4354;DHT22;11018;51.258;6.806;2023-08-12T01:40:06;20.50;99.90
4354;DHT22;11018;51.258;6.806;2023-08-12T01:42:34;20.50;99.90
4354;DHT22;11018;51.258;6.806;2023-08-12T01:45:02;20.50;99.90
4354;DHT22;11018;51.258;6.806;2023-08-12T01:47:28;20.50;99.90
4354;DHT22;11018;51.258;6.806;2023-08-12T01:49:54;20.40;99.90
4354;DHT22;11018;51.258;6.806;2023-08-12T01:52:20;20.40;99.90
4354;DHT22;11018;51.258;6.806;2023-08-12T01:54:45;20.30;99.90
4354;DHT22;11018;51.258;6.806;2023-08-12T01:57:11;20.30;99.90
4354;DHT22;11018;51.258;6.806;2023-08-12T01:59:38;20.30;99.90
4354;DHT22;11018;51.258;6.806;2023-08-12T02:02:04;20.30;99.90
4354;DHT22;11018;51.258;6.806;2023-08-12T02:04:30;20.30;99.90
4354;DHT22;11018;51.258;6.806;2023-08-12T02:06:56;20.20;99.90
4354;DHT22;11018;51.258;6.806;2023-08-12T02:09:23;20.30;99.90
4354;DHT22;11018;51.258;6.806;2023-08-12T02:11:49;20.40;99.90
4354;DHT22;11018;51.258;6.806;2023-08-12T02:14:15;20.30;99.90
4354;DHT22;11018;51.258;6.806;2023-08-12T02:16:41;20.30;99.90
4354;DHT22;11018;51.258;6.806;2023-08-12T02:19:06;20.40;99.90
4354;DHT22;11018;51.258;6.806;2023-08-12T02:21:32;20.40;99.90
4354;DHT22;11018;51.258;6.806;2023-08-12T02:23:58;20.30;99.90
4354;DHT22;11018;51.258;6.806;2023-08-12T02:26:23;20.30;99.90
4354;DHT22;11018;51.258;6.806;2023-08-12T02:28:49;20.30;99.90
4354;DHT22;11018;51.258;6.806;2023-08-12T02:31:17;20.30;99.90
4354;DHT22;11018;51.258;6.806;2023-08-12T02:33:43;20.30;99.90
4354;DHT22;11018;51.258;6.806;2023-08-12T02:36:09;20.30;99.90
4354;DHT22;11018;51.258;6.806;2023-08-12T02:38:34;20.20;99.90
4354;DHT22;11018;51.258;6.806;2023-08-12T02:41:00;20.20;99.90
4354;DHT22;11018;51.258;6.806;2023-08-12T02:43:26;20.20;99.90
4354;DHT22;11018;51.258;6.806;2023-08-12T02:45:51;20.30;99.90
4354;DHT22;11018;51.258;6.806;2023-08-12T02:48:17;20.20;99.90
4354;DHT22;11018;51.258;6.806;2023-08-12T02:50:43;20.20;99.90
4354;DHT22;11018;51.258;6.806;2023-08-12T02:53:09;20.20;99.90
4354;DHT22;11018;51.258;6.806;2023-08-12T02:55:34;20.20;99.90
4354;DHT22;11018;51.258;6.806;2023-08-12T02:58:01;20.20;99.90
4354;DHT22;11018;51.258;6.806;2023-08-12T03:00:27;20.30;99.90
4354;DHT22;11018;51.258;6.806;2023-08-12T03:02:53;20.30;99.90
4354;DHT22;11018;51.258;6.806;2023-08-12T03:05:20;20.30;99.90
4354;DHT22;11018;51.258;6.806;2023-08-12T03:07:45;20.30;99.90
4354;DHT22;11018;51.258;6.806;2023-08-12T03:10:12;20.30;99.90
4354;DHT22;11018;51.258;6.806;2023-08-12T03:12:38;20.40;99.90
4354;DHT22;11018;51.258;6.806;2023-08-12T03:15:04;20.50;99.90
4354;DHT22;11018;51.258;6.806;2023-08-12T03:17:30;20.40;99.90
4354;DHT22;11018;51.258;6.806;2023-08-12T03:19:57;20.40;99.90
4354;DHT22;11018;51.258;6.806;2023-08-12T03:22:25;20.50;99.90
4354;DHT22;11018;51.258;6.806;2023-08-12T03:24:50;20.50;99.90
4354;DHT22;11018;51.258;6.806;2023-08-12T03:27:16;20.40;99.90
4354;DHT22;11018;51.258;6.806;2023-08-12T03:29:41;20.40;99.90
4354;DHT22;11018;51.258;6.806;2023-08-12T03:32:07;20.50;99.90
4354;DHT22;11018;51.258;6.806;2023-08-12T03:34:32;20.50;99.90
4354;DHT22;11018;51.258;6.806;2023-08-12T03:36:58;20.40;99.90
4354;DHT22;11018;51.258;6.806;2023-08-12T03:39:24;20.40;99.90
4354;DHT22;11018;51.258;6.806;2023-08-12T03:41:49;20.40;99.90
4354;DHT22;11018;51.258;6.806;2023-08-12T03:44:18;20.40;99.90
4354;DHT22;11018;51.258;6.806;2023-08-12T03:46:44;20.40;99.90
4354;DHT22;11018;51.258;6.806;2023-08-12T03:49:10;20.40;99.90
4354;DHT22;11018;51.258;6.806;2023-08-12T03:51:35;20.40;99.90
4354;DHT22;11018;51.258;6.806;2023-08-12T03:54:01;20.40;99.90
4354;DHT22;11018;51.258;6.806;2023-08-12T03:56:27;20.50;99.90
4354;DHT22;11018;51.258;6.806;2023-08-12T03:58:52;20.50;99.90
4354;DHT22;11018;51.258;6.806;2023-08-12T04:01:18;20.50;99.90
4354;DHT22;11018;51.258;6.806;2023-08-12T04:03:43;20.50;99.90
4354;DHT22;11018;51.258;6.806;2023-08-12T04:06:09;20.50;99.90
4354;DHT22;11018;51.258;6.806;2023-08-12T04:08:34;20.60;99.90
4354;DHT22;11018;51.258;6.806;2023-08-12T04:11:00;20.50;99.90
4354;DHT22;11018;51.258;6.806;2023-08-12T04:13:26;20.40;99.90
4354;DHT22;11018;51.258;6.806;2023-08-12T04:15:52;20.40;99.90
4354;DHT22;11018;51.258;6.806;2023-08-12T04:18:18;20.40;99.90
4354;DHT22;11018;51.258;6.806;2023-08-12T04:20:51;20.30;99.90
4354;DHT22;11018;51.258;6.806;2023-08-12T04:23:17;20.30;99.90
4354;DHT22;11018;51.258;6.806;2023-08-12T04:25:44;20.40;99.90
4354;DHT22;11018;51.258;6.806;2023-08-12T04:28:11;20.40;99.90
4354;DHT22;11018;51.258;6.806;2023-08-12T04:30:47;20.30;99.90
4354;DHT22;11018;51.258;6.806;2023-08-12T04:33:13;20.30;99.90
4354;DHT22;11018;51.258;6.806;2023-08-12T04:35:40;20.30;99.90
4354;DHT22;11018;51.258;6.806;2023-08-12T04:38:06;20.40;99.90
4354;DHT22;11018;51.258;6.806;2023-08-12T04:40:32;20.40;99.90
4354;DHT22;11018;51.258;6.806;2023-08-12T04:43:01;20.30;99.90
4354;DHT22;11018;51.258;6.806;2023-08-12T04:45:27;20.30;99.90
4354;DHT22;11018;51.258;6.806;2023-08-12T04:47:53;20.40;99.90
4354;DHT22;11018;51.258;6.806;2023-08-12T04:50:19;20.50;99.90
4354;DHT22;11018;51.258;6.806;2023-08-12T04:52:44;20.50;99.90
4354;DHT22;11018;51.258;6.806;2023-08-12T04:55:11;20.60;99.90
4354;DHT22;11018;51.258;6.806;2023-08-12T04:57:37;20.70;99.90
4354;DHT22;11018;51.258;6.806;2023-08-12T05:00:04;20.70;99.90
4354;DHT22;11018;51.258;6.806;2023-08-12T05:02:30;20.60;99.90
4354;DHT22;11018;51.258;6.806;2023-08-12T05:04:55;20.70;99.90
4354;DHT22;11018;51.258;6.806;2023-08-12T05:07:21;20.70;99.90
4354;DHT22;11018;51.258;6.806;2023-08-12T05:09:46;20.70;99.90
4354;DHT22;11018;51.258;6.806;2023-08-12T05:12:12;20.70;99.90
4354;DHT22;11018;51.258;6.806;2023-08-12T05:14:39;20.60;99.90
4354;DHT22;11018;51.258;6.806;2023-08-12T05:17:05;20.60;99.90
4354;DHT22;11018;51.258;6.806;2023-08-12T05:19:31;20.70;99.90
4354;DHT22;11018;51.258;6.806;2023-08-12T05:21:56;20.60;99.90
4354;DHT22;11018;51.258;6.806;2023-08-12T05:24:22;20.60;99.90
4354;DHT22;11018;51.258;6.806;2023-08-12T05:26:47;20.60;99.90
4354;DHT22;11018;51.258;6.806;2023-08-12T05:29:13;20.70;99.90
4354;DHT22;11018;51.258;6.806;2023-08-12T05:31:39;20.80;99.90
4354;DHT22;11018;51.258;6.806;2023-08-12T05:34:04;20.80;99.90
4354;DHT22;11018;51.258;6.806;2023-08-12T05:36:30;20.90;99.90
4354;DHT22;11018;51.258;6.806;2023-08-12T05:38:55;20.90;99.90
4354;DHT22;11018;51.258;6.806;2023-08-12T05:41:21;21.00;99.90
4354;DHT22;11018;51.258;6.806;2023-08-12T05:43:48;21.00;99.90
4354;DHT22;11018;51.258;6.806;2023-08-12T05:46:13;21.10;99.90
4354;DHT22;11018;51.258;6.806;2023-08-12T05:48:39;21.20;99.90
4354;DHT22;11018;51.258;6.806;2023-08-12T05:51:05;21.20;99.90
4354;DHT22;11018;51.258;6.806;2023-08-12T05:53:30;21.20;99.90
4354;DHT22;11018;51.258;6.806;2023-08-12T05:55:56;21.20;99.90
4354;DHT22;11018;51.258;6.806;2023-08-12T05:58:21;21.20;99.90
4354;DHT22;11018;51.258;6.806;2023-08-12T06:00:47;21.10;99.90
4354;DHT22;11018;51.258;6.806;2023-08-12T06:03:13;21.10;99.90
4354;DHT22;11018;51.258;6.806;2023-08-12T06:05:40;21.10;99.90
4354;DHT22;11018;51.258;6.806;2023-08-12T06:08:05;21.00;99.90
4354;DHT22;11018;51.258;6.806;2023-08-12T06:10:32;20.90;99.90
4354;DHT22;11018;51.258;6.806;2023-08-12T06:12:58;20.90;99.90
4354;DHT22;11018;51.258;6.806;2023-08-12T06:15:23;20.80;99.90
4354;DHT22;11018;51.258;6.806;2023-08-12T06:17:49;20.80;99.90
4354;DHT22;11018;51.258;6.806;2023-08-12T06:20:14;20.70;99.90
4354;DHT22;11018;51.258;6.806;2023-08-12T06:22:40;20.70;99.90
4354;DHT22;11018;51.258;6.806;2023-08-12T06:25:06;20.60;99.90
4354;DHT22;11018;51.258;6.806;2023-08-12T06:27:32;20.60;99.90
4354;DHT22;11018;51.258;6.806;2023-08-12T06:29:57;20.50;99.90
4354;DHT22;11018;51.258;6.806;2023-08-12T06:32:23;20.50;99.90
4354;DHT22;11018;51.258;6.806;2023-08-12T06:34:48;20.50;99.90
4354;DHT22;11018;51.258;6.806;2023-08-12T06:37:14;20.40;99.90
4354;DHT22;11018;51.258;6.806;2023-08-12T06:39:39;20.40;99.90
4354;DHT22;11018;51.258;6.806;2023-08-12T06:42:05;20.40;99.90
4354;DHT22;11018;51.258;6.806;2023-08-12T06:44:31;20.40;99.90
4354;DHT22;11018;51.258;6.806;2023-08-12T06:46:56;20.40;99.90
4354;DHT22;11018;51.258;6.806;2023-08-12T06:49:22;20.40;99.90
4354;DHT22;11018;51.258;6.806;2023-08-12T06:51:47;20.40;99.90
4354;DHT22;11018;51.258;6.806;2023-08-12T06:54:13;20.40;99.90
4354;DHT22;11018;51.258;6.806;2023-08-12T06:56:38;20.40;99.90
4354;DHT22;11018;51.258;6.806;2023-08-12T06:59:04;20.60;99.90
4354;DHT22;11018;51.258;6.806;2023-08-12T07:01:30;20.70;99.90
4354;DHT22;11018;51.258;6.806;2023-08-12T07:03:55;20.80;99.90
4354;DHT22;11018;51.258;6.806;2023-08-12T07:06:22;20.90;99.90
4354;DHT22;11018;51.258;6.806;2023-08-12T07:08:47;21.00;99.90
4354;DHT22;11018;51.258;6.806;2023-08-12T07:11:13;21.10;99.90
4354;DHT22;11018;51.258;6.806;2023-08-12T07:13:38;21.00;99.90
4354;DHT22;11018;51.258;6.806;2023-08-12T07:16:04;21.00;99.90
4354;DHT22;11018;51.258;6.806;2023-08-12T07:18:30;21.10;99.90
4354;DHT22;11018;51.258;6.806;2023-08-12T07:20:56;21.30;99.90
4354;DHT22;11018;51.258;6.806;2023-08-12T07:23:23;21.50;99.90
4354;DHT22;11018;51.258;6.806;2023-08-12T07:25:49;21.80;98.60
4354;DHT22;11018;51.258;6.806;2023-08-12T07:28:15;21.90;92.00
4354;DHT22;11018;51.258;6.806;2023-08-12T07:30:41;22.00;92.30
4354;DHT22;11018;51.258;6.806;2023-08-12T07:33:07;22.00;91.60
4354;DHT22;11018;51.258;6.806;2023-08-12T07:35:32;21.90;88.80
4354;DHT22;11018;51.258;6.806;2023-08-12T07:37:58;21.90;91.70
4354;DHT22;11018;51.258;6.806;2023-08-12T07:40:23;22.10;89.40
4354;DHT22;11018;51.258;6.806;2023-08-12T07:42:49;22.20;84.60
4354;DHT22;11018;51.258;6.806;2023-08-12T07:45:14;22.40;84.80
4354;DHT22;11018;51.258;6.806;2023-08-12T07:47:40;22.30;84.50
4354;DHT22;11018;51.258;6.806;2023-08-12T07:50:06;22.30;83.80
4354;DHT22;11018;51.258;6.806;2023-08-12T07:52:32;22.10;87.60
4354;DHT22;11018;51.258;6.806;2023-08-12T07:54:57;22.10;86.80
4354;DHT22;11018;51.258;6.806;2023-08-12T07:57:23;22.30;84.90
4354;DHT22;11018;51.258;6.806;2023-08-12T07:59:50;22.30;84.40
4354;DHT22;11018;51.258;6.806;2023-08-12T08:02:16;22.40;84.30
4354;DHT22;11018;51.258;6.806;2023-08-12T08:04:41;22.30;84.30
4354;DHT22;11018;51.258;6.806;2023-08-12T08:07:07;22.30;86.70
4354;DHT22;11018;51.258;6.806;2023-08-12T08:09:33;22.30;86.30
4354;DHT22;11018;51.258;6.806;2023-08-12T08:11:59;22.30;82.50
4354;DHT22;11018;51.258;6.806;2023-08-12T08:14:26;22.30;84.10
4354;DHT22;11018;51.258;6.806;2023-08-12T08:16:51;22.20;86.00
4354;DHT22;11018;51.258;6.806;2023-08-12T08:19:17;22.30;84.00
4354;DHT22;11018;51.258;6.806;2023-08-12T08:21:43;22.30;84.90
4354;DHT22;11018;51.258;6.806;2023-08-12T08:24:09;22.40;80.90
4354;DHT22;11018;51.258;6.806;2023-08-12T08:26:36;22.80;77.30
4354;DHT22;11018;51.258;6.806;2023-08-12T08:29:02;23.00;74.80
4354;DHT22;11018;51.258;6.806;2023-08-12T08:31:28;23.30;70.70
4354;DHT22;11018;51.258;6.806;2023-08-12T08:33:54;23.50;68.50
4354;DHT22;11018;51.258;6.806;2023-08-12T08:36:19;23.50;64.80
4354;DHT22;11018;51.258;6.806;2023-08-12T08:38:45;23.50;62.70
4354;DHT22;11018;51.258;6.806;2023-08-12T08:41:11;23.60;63.70
4354;DHT22;11018;51.258;6.806;2023-08-12T08:43:37;23.70;61.80
4354;DHT22;11018;51.258;6.806;2023-08-12T08:46:06;24.00;60.60
4354;DHT22;11018;51.258;6.806;2023-08-12T08:48:32;24.20;58.70
4354;DHT22;11018;51.258;6.806;2023-08-12T08:51:00;24.30;59.00
4354;DHT22;11018;51.258;6.806;2023-08-12T08:53:26;24.30;58.10
4354;DHT22;11018;51.258;6.806;2023-08-12T08:55:52;24.20;57.20
4354;DHT22;11018;51.258;6.806;2023-08-12T08:58:20;24.20;56.60
4354;DHT22;11018;51.258;6.806;2023-08-12T09:00:46;24.10;57.70
4354;DHT22;11018;51.258;6.806;2023-08-12T09:03:12;24.00;60.80
4354;DHT22;11018;51.258;6.806;2023-08-12T09:05:39;23.50;65.00
4354;DHT22;11018;51.258;6.806;2023-08-12T09:08:05;23.40;67.10
4354;DHT22;11018;51.258;6.806;2023-08-12T09:10:36;23.40;67.10
4354;DHT22;11018;51.258;6.806;2023-08-12T09:13:03;23.40;65.60
4354;DHT22;11018;51.258;6.806;2023-08-12T09:15:29;23.30;67.20
4354;DHT22;11018;51.258;6.806;2023-08-12T09:17:55;23.40;66.40
4354;DHT22;11018;51.258;6.806;2023-08-12T09:20:21;23.40;66.80
4354;DHT22;11018;51.258;6.806;2023-08-12T09:22:56;23.30;67.60
4354;DHT22;11018;51.258;6.806;2023-08-12T09:25:22;23.40;68.60
4354;DHT22;11018;51.258;6.806;2023-08-12T09:27:48;23.40;67.50
4354;DHT22;11018;51.258;6.806;2023-08-12T09:30:14;23.50;67.50
4354;DHT22;11018;51.258;6.806;2023-08-12T09:32:40;23.70;64.20
4354;DHT22;11018;51.258;6.806;2023-08-12T09:35:10;23.70;64.30
4354;DHT22;11018;51.258;6.806;2023-08-12T09:37:41;23.70;61.90
4354;DHT22;11018;51.258;6.806;2023-08-12T09:40:07;23.60;64.30
4354;DHT22;11018;51.258;6.806;2023-08-12T09:42:34;23.60;64.10
4354;DHT22;11018;51.258;6.806;2023-08-12T09:45:00;23.50;66.80
4354;DHT22;11018;51.258;6.806;2023-08-12T09:47:26;23.60;66.00
4354;DHT22;11018;51.258;6.806;2023-08-12T09:49:52;23.60;66.20
4354;DHT22;11018;51.258;6.806;2023-08-12T09:52:18;23.70;66.00
4354;DHT22;11018;51.258;6.806;2023-08-12T09:54:44;23.90;63.60
4354;DHT22;11018;51.258;6.806;2023-08-12T09:57:10;24.50;60.90
4354;DHT22;11018;51.258;6.806;2023-08-12T09:59:38;24.90;55.20
4354;DHT22;11018;51.258;6.806;2023-08-12T10:02:06;25.20;52.20
4354;DHT22;11018;51.258;6.806;2023-08-12T10:04:39;25.50;50.10
4354;DHT22;11018;51.258;6.806;2023-08-12T10:07:07;25.90;46.40
4354;DHT22;11018;51.258;6.806;2023-08-12T10:09:33;25.90;44.90
4354;DHT22;11018;51.258;6.806;2023-08-12T10:11:59;25.70;45.90
4354;DHT22;11018;51.258;6.806;2023-08-12T10:14:25;25.30;47.20
4354;DHT22;11018;51.258;6.806;2023-08-12T10:16:52;25.10;47.40
4354;DHT22;11018;51.258;6.806;2023-08-12T10:19:19;24.90;49.50
4354;DHT22;11018;51.258;6.806;2023-08-12T10:21:48;24.80;50.10
4354;DHT22;11018;51.258;6.806;2023-08-12T10:24:16;24.70;51.00
4354;DHT22;11018;51.258;6.806;2023-08-12T10:26:42;24.70;51.90
4354;DHT22;11018;51.258;6.806;2023-08-12T10:29:08;24.60;50.70
4354;DHT22;11018;51.258;6.806;2023-08-12T10:31:34;24.40;51.50
4354;DHT22;11018;51.258;6.806;2023-08-12T10:34:00;24.50;52.90
4354;DHT22;11018;51.258;6.806;2023-08-12T10:36:26;24.60;49.80
4354;DHT22;11018;51.258;6.806;2023-08-12T10:38:52;24.60;51.10
4354;DHT22;11018;51.258;6.806;2023-08-12T10:41:23;24.50;50.70
4354;DHT22;11018;51.258;6.806;2023-08-12T10:43:59;24.00;56.30
4354;DHT22;11018;51.258;6.806;2023-08-12T10:46:31;23.70;61.90
4354;DHT22;11018;51.258;6.806;2023-08-12T10:51:58;23.80;63.20
4354;DHT22;11018;51.258;6.806;2023-08-12T10:54:26;24.00;61.50
4354;DHT22;11018;51.258;6.806;2023-08-12T11:02:20;24.20;62.50
4354;DHT22;11018;51.258;6.806;2023-08-12T11:05:13;24.20;58.80
4354;DHT22;11018;51.258;6.806;2023-08-12T11:07:46;24.40;59.70
4354;DHT22;11018;51.258;6.806;2023-08-12T11:10:17;24.60;55.50
4354;DHT22;11018;51.258;6.806;2023-08-12T11:12:57;25.10;53.70
4354;DHT22;11018;51.258;6.806;2023-08-12T11:15:31;25.60;51.80
4354;DHT22;11018;51.258;6.806;2023-08-12T11:18:03;25.90;47.80
4354;DHT22;11018;51.258;6.806;2023-08-12T11:20:30;26.10;48.30
4354;DHT22;11018;51.258;6.806;2023-08-12T11:22:56;26.30;48.30
4354;DHT22;11018;51.258;6.806;2023-08-12T11:25:23;26.40;45.60
4354;DHT22;11018;51.258;6.806;2023-08-12T11:27:49;26.60;44.70
4354;DHT22;11018;51.258;6.806;2023-08-12T11:30:19;26.70;44.20
4354;DHT22;11018;51.258;6.806;2023-08-12T11:32:47;27.10;42.30
4354;DHT22;11018;51.258;6.806;2023-08-12T11:35:15;27.20;41.30
4354;DHT22;11018;51.258;6.806;2023-08-12T11:37:42;27.30;40.50
4354;DHT22;11018;51.258;6.806;2023-08-12T11:40:09;27.40;39.00
4354;DHT22;11018;51.258;6.806;2023-08-12T11:42:39;27.30;38.00
4354;DHT22;11018;51.258;6.806;2023-08-12T11:45:07;27.00;39.30
4354;DHT22;11018;51.258;6.806;2023-08-12T11:47:40;26.90;39.10
4354;DHT22;11018;51.258;6.806;2023-08-12T11:50:07;27.00;41.80
4354;DHT22;11018;51.258;6.806;2023-08-12T11:52:34;27.10;40.20
4354;DHT22;11018;51.258;6.806;2023-08-12T11:55:00;27.60;37.40
4354;DHT22;11018;51.258;6.806;2023-08-12T11:57:26;27.90;34.80
4354;DHT22;11018;51.258;6.806;2023-08-12T12:00:00;28.20;36.00
4354;DHT22;11018;51.258;6.806;2023-08-12T12:02:26;28.20;34.20
4354;DHT22;11018;51.258;6.806;2023-08-12T12:04:55;27.80;35.50
4354;DHT22;11018;51.258;6.806;2023-08-12T12:07:25;27.70;36.40
4354;DHT22;11018;51.258;6.806;2023-08-12T12:09:53;27.80;35.50
4354;DHT22;11018;51.258;6.806;2023-08-12T12:12:26;28.20;36.80
4354;DHT22;11018;51.258;6.806;2023-08-12T12:14:55;28.70;34.10
4354;DHT22;11018;51.258;6.806;2023-08-12T12:17:24;28.30;33.10
4354;DHT22;11018;51.258;6.806;2023-08-12T12:19:56;27.80;34.00
4354;DHT22;11018;51.258;6.806;2023-08-12T12:22:30;27.30;35.60
4354;DHT22;11018;51.258;6.806;2023-08-12T12:25:04;27.00;37.20
4354;DHT22;11018;51.258;6.806;2023-08-12T12:27:31;26.70;37.20
4354;DHT22;11018;51.258;6.806;2023-08-12T12:29:56;25.90;40.70
4354;DHT22;11018;51.258;6.806;2023-08-12T12:32:22;24.50;50.70
4354;DHT22;11018;51.258;6.806;2023-08-12T12:34:48;23.40;58.00
4354;DHT22;11018;51.258;6.806;2023-08-12T12:37:14;22.70;72.10
4354;DHT22;11018;51.258;6.806;2023-08-12T12:39:40;22.40;78.00
4354;DHT22;11018;51.258;6.806;2023-08-12T12:42:06;22.20;87.50
4354;DHT22;11018;51.258;6.806;2023-08-12T12:44:31;22.00;80.80
4354;DHT22;11018;51.258;6.806;2023-08-12T12:46:57;21.90;87.40
4354;DHT22;11018;51.258;6.806;2023-08-12T12:49:23;21.70;88.50
4354;DHT22;11018;51.258;6.806;2023-08-12T12:51:49;21.70;92.90
4354;DHT22;11018;51.258;6.806;2023-08-12T12:54:15;21.70;93.70
4354;DHT22;11018;51.258;6.806;2023-08-12T12:56:40;21.90;90.30
4354;DHT22;11018;51.258;6.806;2023-08-12T12:59:06;22.00;87.60
4354;DHT22;11018;51.258;6.806;2023-08-12T13:01:33;22.30;82.20
4354;DHT22;11018;51.258;6.806;2023-08-12T13:03:58;22.60;73.90
4354;DHT22;11018;51.258;6.806;2023-08-12T13:06:24;22.90;71.40
4354;DHT22;11018;51.258;6.806;2023-08-12T13:08:49;23.10;68.40
4354;DHT22;11018;51.258;6.806;2023-08-12T13:11:15;23.20;66.90
4354;DHT22;11018;51.258;6.806;2023-08-12T13:13:41;23.30;67.80
4354;DHT22;11018;51.258;6.806;2023-08-12T13:16:07;23.50;59.10
4354;DHT22;11018;51.258;6.806;2023-08-12T13:18:36;23.50;59.70
4354;DHT22;11018;51.258;6.806;2023-08-12T13:21:01;23.60;62.30
4354;DHT22;11018;51.258;6.806;2023-08-12T13:23:27;23.60;65.10
4354;DHT22;11018;51.258;6.806;2023-08-12T13:25:53;23.70;61.00
4354;DHT22;11018;51.258;6.806;2023-08-12T13:28:19;23.70;65.10
4354;DHT22;11018;51.258;6.806;2023-08-12T13:30:45;23.70;57.70
4354;DHT22;11018;51.258;6.806;2023-08-12T13:33:11;23.70;56.50
4354;DHT22;11018;51.258;6.806;2023-08-12T13:35:37;23.90;58.60
4354;DHT22;11018;51.258;6.806;2023-08-12T13:38:03;24.00;57.70
4354;DHT22;11018;51.258;6.806;2023-08-12T13:40:29;24.50;54.20
4354;DHT22;11018;51.258;6.806;2023-08-12T13:42:54;24.50;54.00
4354;DHT22;11018;51.258;6.806;2023-08-12T13:45:20;24.50;52.00
4354;DHT22;11018;51.258;6.806;2023-08-12T13:47:46;24.50;54.10
4354;DHT22;11018;51.258;6.806;2023-08-12T13:50:12;24.50;51.70
4354;DHT22;11018;51.258;6.806;2023-08-12T13:52:39;24.80;52.00
4354;DHT22;11018;51.258;6.806;2023-08-12T13:55:05;25.10;46.40
4354;DHT22;11018;51.258;6.806;2023-08-12T13:57:30;25.40;46.80
4354;DHT22;11018;51.258;6.806;2023-08-12T13:59:56;25.50;46.40
4354;DHT22;11018;51.258;6.806;2023-08-12T14:02:22;25.80;42.30
4354;DHT22;11018;51.258;6.806;2023-08-12T14:04:48;25.80;38.00
4354;DHT22;11018;51.258;6.806;2023-08-12T14:07:14;26.10;38.60
4354;DHT22;11018;51.258;6.806;2023-08-12T14:09:41;26.50;35.60
4354;DHT22;11018;51.258;6.806;2023-08-12T14:12:06;26.70;35.40
4354;DHT22;11018;51.258;6.806;2023-08-12T14:14:32;27.00;36.60
4354;DHT22;11018;51.258;6.806;2023-08-12T14:16:57;27.20;36.10
4354;DHT22;11018;51.258;6.806;2023-08-12T14:19:23;27.60;34.00
4354;DHT22;11018;51.258;6.806;2023-08-12T14:21:49;27.80;33.70
4354;DHT22;11018;51.258;6.806;2023-08-12T14:24:14;27.30;33.70
4354;DHT22;11018;51.258;6.806;2023-08-12T14:26:40;27.10;36.20
4354;DHT22;11018;51.258;6.806;2023-08-12T14:29:06;26.70;36.90
4354;DHT22;11018;51.258;6.806;2023-08-12T14:31:31;26.20;38.40
4354;DHT22;11018;51.258;6.806;2023-08-12T14:33:57;25.60;39.90
4354;DHT22;11018;51.258;6.806;2023-08-12T14:36:23;25.10;43.40
4354;DHT22;11018;51.258;6.806;2023-08-12T14:38:50;24.90;44.50
4354;DHT22;11018;51.258;6.806;2023-08-12T14:41:15;25.00;44.90
4354;DHT22;11018;51.258;6.806;2023-08-12T14:43:41;25.30;42.60
4354;DHT22;11018;51.258;6.806;2023-08-12T14:46:07;25.90;39.80
4354;DHT22;11018;51.258;6.806;2023-08-12T14:48:32;26.00;40.10
4354;DHT22;11018;51.258;6.806;2023-08-12T14:50:58;26.40;39.90
4354;DHT22;11018;51.258;6.806;2023-08-12T14:53:25;27.60;30.60
4354;DHT22;11018;51.258;6.806;2023-08-12T14:55:51;28.20;27.50
4354;DHT22;11018;51.258;6.806;2023-08-12T14:58:17;28.80;26.30
4354;DHT22;11018;51.258;6.806;2023-08-12T15:00:42;29.30;26.80
4354;DHT22;11018;51.258;6.806;2023-08-12T15:03:08;29.70;25.70
4354;DHT22;11018;51.258;6.806;2023-08-12T15:05:35;28.20;27.90
4354;DHT22;11018;51.258;6.806;2023-08-12T15:08:01;27.80;28.80
4354;DHT22;11018;51.258;6.806;2023-08-12T15:10:27;28.30;27.80
4354;DHT22;11018;51.258;6.806;2023-08-12T15:12:55;28.70;25.80
4354;DHT22;11018;51.258;6.806;2023-08-12T15:15:20;28.00;28.00
4354;DHT22;11018;51.258;6.806;2023-08-12T15:17:46;27.90;27.30
4354;DHT22;11018;51.258;6.806;2023-08-12T15:20:11;28.20;27.00
4354;DHT22;11018;51.258;6.806;2023-08-12T15:22:37;28.20;24.60
4354;DHT22;11018;51.258;6.806;2023-08-12T15:25:03;29.00;22.20
4354;DHT22;11018;51.258;6.806;2023-08-12T15:27:28;29.40;19.80
4354;DHT22;11018;51.258;6.806;2023-08-12T15:29:55;29.80;19.20
4354;DHT22;11018;51.258;6.806;2023-08-12T15:32:21;30.10;19.10
4354;DHT22;11018;51.258;6.806;2023-08-12T15:34:46;30.30;17.50
4354;DHT22;11018;51.258;6.806;2023-08-12T15:37:12;30.40;16.20
4354;DHT22;11018;51.258;6.806;2023-08-12T15:39:37;30.20;18.20
4354;DHT22;11018;51.258;6.806;2023-08-12T15:42:03;30.50;16.40
4354;DHT22;11018;51.258;6.806;2023-08-12T15:44:29;29.70;16.40
4354;DHT22;11018;51.258;6.806;2023-08-12T15:46:54;28.10;20.50
4354;DHT22;11018;51.258;6.806;2023-08-12T15:49:20;27.10;22.40
4354;DHT22;11018;51.258;6.806;2023-08-12T15:51:46;26.90;21.70